Triangle, New York
Current Conditions -  °F | °C
As of 11:15 PM on Sunday 23 Nov 2014 (Local Time) from KBGM Reporting Station
Overcast Overcast  
Wind Chill: 42°   Ceiling: 2900
Heat Index: 48°   Visibility: 10mi
Dew Point: 36°   Wind: 15mph
Humidity: 63%   Direction: 160°SSE
Pressure: 29.87"   Gusts: NA
Location:  42.3542°N, 75.7469°W
Report Text: KBGM 240415Z 16013KT 10SM OVC029 09/02 A2987 RMK AO2 T00890022
Loading
Personal Weather Stations






























Interactive Weather Map New forecast layout! Learn more

10-Day Weather Forecast

Advertisements
Track Severe Weather on mobile